sensor_id;sensor_type;location;lat;lon;timestamp;pressure;altitude;pressure_sealevel;temperature;humidity
8320;BME280;4197;42.130;24.746;2024-03-17T00:00:51;99886.38;;;7.67;100.00
8320;BME280;4197;42.130;24.746;2024-03-17T00:03:19;99892.13;;;7.65;100.00
8320;BME280;4197;42.130;24.746;2024-03-17T00:05:55;99885.91;;;7.65;100.00
8320;BME280;4197;42.130;24.746;2024-03-17T00:08:22;99881.63;;;7.64;100.00
8320;BME280;4197;42.130;24.746;2024-03-17T00:10:50;99883.69;;;7.67;100.00
8320;BME280;4197;42.130;24.746;2024-03-17T00:13:17;99881.00;;;7.67;100.00
8320;BME280;4197;42.130;24.746;2024-03-17T00:15:44;99892.25;;;7.69;100.00
8320;BME280;4197;42.130;24.746;2024-03-17T00:18:10;99879.41;;;7.66;100.00
8320;BME280;4197;42.130;24.746;2024-03-17T00:20:38;99883.69;;;7.67;100.00
8320;BME280;4197;42.130;24.746;2024-03-17T00:23:07;99881.00;;;7.67;100.00
8320;BME280;4197;42.130;24.746;2024-03-17T00:25:35;99888.94;;;7.63;100.00
8320;BME280;4197;42.130;24.746;2024-03-17T00:28:01;99884.50;;;7.58;100.00
8320;BME280;4197;42.130;24.746;2024-03-17T00:30:29;99880.41;;;7.52;100.00
8320;BME280;4197;42.130;24.746;2024-03-17T00:32:57;99880.56;;;7.47;100.00
8320;BME280;4197;42.130;24.746;2024-03-17T00:35:25;99878.06;;;7.42;100.00
8320;BME280;4197;42.130;24.746;2024-03-17T00:37:51;99873.00;;;7.41;100.00
8320;BME280;4197;42.130;24.746;2024-03-17T00:40:20;99876.47;;;7.41;100.00
8320;BME280;4197;42.130;24.746;2024-03-17T00:42:47;99871.88;;;7.42;100.00
8320;BME280;4197;42.130;24.746;2024-03-17T00:45:14;99871.88;;;7.42;100.00
8320;BME280;4197;42.130;24.746;2024-03-17T00:47:41;99870.56;;;7.48;100.00
8320;BME280;4197;42.130;24.746;2024-03-17T00:50:09;99873.44;;;7.43;100.00
8320;BME280;4197;42.130;24.746;2024-03-17T00:52:37;99870.94;;;7.37;100.00
8320;BME280;4197;42.130;24.746;2024-03-17T00:55:05;99880.78;;;7.33;100.00
8320;BME280;4197;42.130;24.746;2024-03-17T00:57:33;99877.59;;;7.31;100.00
8320;BME280;4197;42.130;24.746;2024-03-17T01:00:00;99874.28;;;7.34;100.00
8320;BME280;4197;42.130;24.746;2024-03-17T01:02:26;99872.38;;;7.35;100.00
8320;BME280;4197;42.130;24.746;2024-03-17T01:04:53;99871.91;;;7.33;100.00
8320;BME280;4197;42.130;24.746;2024-03-17T01:07:20;99879.19;;;7.32;100.00
8320;BME280;4197;42.130;24.746;2024-03-17T01:09:47;99876.81;;;7.31;100.00
8320;BME280;4197;42.130;24.746;2024-03-17T01:12:14;99873.38;;;7.13;100.00
8320;BME280;4197;42.130;24.746;2024-03-17T01:14:42;99872.38;;;7.18;100.00
8320;BME280;4197;42.130;24.746;2024-03-17T01:17:09;99867.81;;;7.18;100.00
8320;BME280;4197;42.130;24.746;2024-03-17T01:19:36;99882.09;;;7.19;100.00
8320;BME280;4197;42.130;24.746;2024-03-17T01:22:02;99872.41;;;7.09;100.00
8320;BME280;4197;42.130;24.746;2024-03-17T01:24:29;99868.94;;;7.08;100.00
8320;BME280;4197;42.130;24.746;2024-03-17T01:26:57;99868.75;;;7.13;100.00
8320;BME280;4197;42.130;24.746;2024-03-17T01:29:26;99866.06;;;7.13;100.00
8320;BME280;4197;42.130;24.746;2024-03-17T01:31:53;99868.63;;;7.10;100.00
8320;BME280;4197;42.130;24.746;2024-03-17T01:34:21;99861.16;;;7.07;100.00
8320;BME280;4197;42.130;24.746;2024-03-17T01:36:48;99860.84;;;7.08;100.00
8320;BME280;4197;42.130;24.746;2024-03-17T01:39:15;99861.47;;;7.05;100.00
8320;BME280;4197;42.130;24.746;2024-03-17T01:41:42;99851.00;;;7.04;100.00
8320;BME280;4197;42.130;24.746;2024-03-17T01:44:21;99855.47;;;7.00;100.00
8320;BME280;4197;42.130;24.746;2024-03-17T01:46:48;99855.75;;;6.98;100.00
8320;BME280;4197;42.130;24.746;2024-03-17T01:49:17;99862.28;;;6.97;100.00
8320;BME280;4197;42.130;24.746;2024-03-17T01:51:44;99869.59;;;6.88;100.00
8320;BME280;4197;42.130;24.746;2024-03-17T01:54:13;99862.78;;;6.82;100.00
8320;BME280;4197;42.130;24.746;2024-03-17T01:56:41;99863.41;;;6.79;100.00
8320;BME280;4197;42.130;24.746;2024-03-17T01:59:10;99859.13;;;6.78;100.00
8320;BME280;4197;42.130;24.746;2024-03-17T02:01:36;99860.88;;;6.74;100.00
8320;BME280;4197;42.130;24.746;2024-03-17T02:04:04;99856.09;;;6.70;100.00
8320;BME280;4197;42.130;24.746;2024-03-17T02:06:32;99849.63;;;6.72;100.00
8320;BME280;4197;42.130;24.746;2024-03-17T02:09:00;99854.22;;;6.71;100.00
8320;BME280;4197;42.130;24.746;2024-03-17T02:11:28;99851.19;;;6.73;100.00
8320;BME280;4197;42.130;24.746;2024-03-17T02:13:56;99852.94;;;6.77;100.00
8320;BME280;4197;42.130;24.746;2024-03-17T02:16:23;99845.00;;;6.81;100.00
8320;BME280;4197;42.130;24.746;2024-03-17T02:18:54;99853.09;;;6.81;100.00
8320;BME280;4197;42.130;24.746;2024-03-17T02:21:22;99860.53;;;6.84;100.00
8320;BME280;4197;42.130;24.746;2024-03-17T02:23:52;99853.41;;;6.88;100.00
8320;BME280;4197;42.130;24.746;2024-03-17T02:26:19;99855.13;;;6.92;100.00
8320;BME280;4197;42.130;24.746;2024-03-17T02:28:46;99850.56;;;6.93;100.00
8320;BME280;4197;42.130;24.746;2024-03-17T02:31:16;99849.13;;;6.96;100.00
8320;BME280;4197;42.130;24.746;2024-03-17T02:33:43;99849.13;;;6.96;100.00
8320;BME280;4197;42.130;24.746;2024-03-17T02:36:11;99853.72;;;6.95;100.00
8320;BME280;4197;42.130;24.746;2024-03-17T02:38:39;99841.34;;;6.94;100.00
8320;BME280;4197;42.130;24.746;2024-03-17T02:41:25;99847.88;;;6.93;100.00
8320;BME280;4197;42.130;24.746;2024-03-17T02:43:54;99852.00;;;6.90;100.00
8320;BME280;4197;42.130;24.746;2024-03-17T02:46:21;99850.88;;;6.83;100.00
8320;BME280;4197;42.130;24.746;2024-03-17T02:48:50;99853.09;;;6.81;100.00
8320;BME280;4197;42.130;24.746;2024-03-17T02:51:19;99854.06;;;6.85;100.00
8320;BME280;4197;42.130;24.746;2024-03-17T02:53:48;99860.25;;;6.85;100.00
8320;BME280;4197;42.130;24.746;2024-03-17T02:56:16;99853.56;;;6.83;100.00
8320;BME280;4197;42.130;24.746;2024-03-17T02:58:46;99850.25;;;6.86;100.00
8320;BME280;4197;42.130;24.746;2024-03-17T03:01:14;99849.47;;;6.85;100.00
8320;BME280;4197;42.130;24.746;2024-03-17T03:03:42;99855.78;;;6.81;100.00
8320;BME280;4197;42.130;24.746;2024-03-17T03:06:09;99860.25;;;6.77;100.00
8320;BME280;4197;42.130;24.746;2024-03-17T03:08:37;99851.19;;;6.73;100.00
8320;BME280;4197;42.130;24.746;2024-03-17T03:11:07;99845.03;;;6.72;100.00
8320;BME280;4197;42.130;24.746;2024-03-17T03:13:37;99853.09;;;6.72;100.00
8320;BME280;4197;42.130;24.746;2024-03-17T03:16:07;99852.16;;;6.68;100.00
8320;BME280;4197;42.130;24.746;2024-03-17T03:18:36;99852.78;;;6.65;100.00
8320;BME280;4197;42.130;24.746;2024-03-17T03:21:04;99857.53;;;6.59;100.00
8320;BME280;4197;42.130;24.746;2024-03-17T03:23:31;99855.63;;;6.51;100.00
8320;BME280;4197;42.130;24.746;2024-03-17T03:26:00;99854.22;;;6.45;100.00
8320;BME280;4197;42.130;24.746;2024-03-17T03:28:31;99855.47;;;6.39;100.00
8320;BME280;4197;42.130;24.746;2024-03-17T03:30:59;99859.75;;;6.40;100.00
8320;BME280;4197;42.130;24.746;2024-03-17T03:33:29;99855.16;;;6.40;100.00
8320;BME280;4197;42.130;24.746;2024-03-17T03:35:56;99853.25;;;6.41;100.00
8320;BME280;4197;42.130;24.746;2024-03-17T03:38:24;99858.31;;;6.42;100.00
8320;BME280;4197;42.130;24.746;2024-03-17T03:40:51;99857.03;;;6.40;100.00
8320;BME280;4197;42.130;24.746;2024-03-17T03:43:19;99855.00;;;6.37;100.00
8320;BME280;4197;42.130;24.746;2024-03-17T03:45:46;99867.50;;;6.33;100.00
8320;BME280;4197;42.130;24.746;2024-03-17T03:48:13;99859.75;;;6.31;100.00
8320;BME280;4197;42.130;24.746;2024-03-17T03:50:41;99865.75;;;6.28;100.00
8320;BME280;4197;42.130;24.746;2024-03-17T03:53:09;99867.19;;;6.34;100.00
8320;BME280;4197;42.130;24.746;2024-03-17T03:55:37;99867.50;;;6.33;100.00
8320;BME280;4197;42.130;24.746;2024-03-17T03:58:04;99865.91;;;6.32;100.00
8320;BME280;4197;42.130;24.746;2024-03-17T04:00:31;99872.75;;;6.29;100.00
8320;BME280;4197;42.130;24.746;2024-03-17T04:03:00;99874.31;;;6.30;100.00
8320;BME280;4197;42.130;24.746;2024-03-17T04:05:28;99870.34;;;6.28;100.00
8320;BME280;4197;42.130;24.746;2024-03-17T04:07:57;99873.69;;;6.24;100.00
8320;BME280;4197;42.130;24.746;2024-03-17T04:10:25;99875.09;;;6.22;100.00
8320;BME280;4197;42.130;24.746;2024-03-17T04:12:52;99875.41;;;6.20;100.00
8320;BME280;4197;42.130;24.746;2024-03-17T04:15:20;99873.66;;;6.16;100.00
8320;BME280;4197;42.130;24.746;2024-03-17T04:17:47;99878.56;;;6.14;100.00
8320;BME280;4197;42.130;24.746;2024-03-17T04:20:16;99880.97;;;6.15;100.00
8320;BME280;4197;42.130;24.746;2024-03-17T04:22:43;99879.34;;;6.14;100.00
8320;BME280;4197;42.130;24.746;2024-03-17T04:25:12;99881.75;;;6.16;100.00
8320;BME280;4197;42.130;24.746;2024-03-17T04:27:40;99886.00;;;6.17;100.00
8320;BME280;4197;42.130;24.746;2024-03-17T04:30:08;99886.50;;;6.19;100.00
8320;BME280;4197;42.130;24.746;2024-03-17T04:32:38;99893.47;;;6.20;100.00
8320;BME280;4197;42.130;24.746;2024-03-17T04:35:06;99902.97;;;6.17;100.00
8320;BME280;4197;42.130;24.746;2024-03-17T04:37:34;99898.84;;;6.20;100.00
8320;BME280;4197;42.130;24.746;2024-03-17T04:40:07;99895.38;;;6.19;100.00
8320;BME280;4197;42.130;24.746;2024-03-17T04:42:38;99903.94;;;6.21;100.00
8320;BME280;4197;42.130;24.746;2024-03-17T04:45:07;99911.38;;;6.24;100.00
8320;BME280;4197;42.130;24.746;2024-03-17T04:47:36;99903.94;;;6.21;100.00
8320;BME280;4197;42.130;24.746;2024-03-17T04:50:05;99914.22;;;6.19;100.00
8320;BME280;4197;42.130;24.746;2024-03-17T04:52:33;99913.91;;;6.21;100.00
8320;BME280;4197;42.130;24.746;2024-03-17T04:55:00;99920.88;;;6.22;100.00
8320;BME280;4197;42.130;24.746;2024-03-17T04:57:29;99920.56;;;6.23;100.00
8320;BME280;4197;42.130;24.746;2024-03-17T04:59:58;99924.72;;;6.30;100.00
8320;BME280;4197;42.130;24.746;2024-03-17T05:02:26;99923.28;;;6.32;100.00
8320;BME280;4197;42.130;24.746;2024-03-17T05:04:53;99925.03;;;6.37;100.00
8320;BME280;4197;42.130;24.746;2024-03-17T05:07:20;99933.75;;;6.42;100.00
8320;BME280;4197;42.130;24.746;2024-03-17T05:09:48;99924.72;;;6.47;100.00
8320;BME280;4197;42.130;24.746;2024-03-17T05:12:15;99930.91;;;6.47;100.00
8320;BME280;4197;42.130;24.746;2024-03-17T05:14:43;99933.94;;;6.46;100.00
8320;BME280;4197;42.130;24.746;2024-03-17T05:17:11;99942.19;;;6.50;100.00
8320;BME280;4197;42.130;24.746;2024-03-17T05:19:39;99945.50;;;6.55;100.00
8320;BME280;4197;42.130;24.746;2024-03-17T05:22:07;99940.91;;;6.64;100.00
8320;BME280;4197;42.130;24.746;2024-03-17T05:24:36;99945.38;;;6.60;100.00
8320;BME280;4197;42.130;24.746;2024-03-17T05:27:04;99944.09;;;6.66;100.00
8320;BME280;4197;42.130;24.746;2024-03-17T05:29:31;99946.16;;;6.69;100.00
8320;BME280;4197;42.130;24.746;2024-03-17T05:31:59;99942.69;;;6.69;100.00
8320;BME280;4197;42.130;24.746;2024-03-17T05:34:29;99943.31;;;6.75;100.00
8320;BME280;4197;42.130;24.746;2024-03-17T05:36:57;99949.69;;;6.87;100.00
8320;BME280;4197;42.130;24.746;2024-03-17T05:39:24;99949.97;;;6.95;100.00
8320;BME280;4197;42.130;24.746;2024-03-17T05:41:51;99946.97;;;7.05;100.00
8320;BME280;4197;42.130;24.746;2024-03-17T05:44:19;99953.16;;;7.14;100.00
8320;BME280;4197;42.130;24.746;2024-03-17T05:46:46;99954.91;;;7.19;100.00
8320;BME280;4197;42.130;24.746;2024-03-17T05:49:14;99955.53;;;7.24;100.00
8320;BME280;4197;42.130;24.746;2024-03-17T05:51:43;99956.63;;;7.41;100.00
8320;BME280;4197;42.130;24.746;2024-03-17T05:54:10;99964.00;;;7.87;100.00
8320;BME280;4197;42.130;24.746;2024-03-17T05:56:38;99968.13;;;7.76;100.00
8320;BME280;4197;42.130;24.746;2024-03-17T05:59:06;99961.31;;;7.70;100.00
8320;BME280;4197;42.130;24.746;2024-03-17T06:01:33;99964.63;;;7.75;100.00
8320;BME280;4197;42.130;24.746;2024-03-17T06:04:02;99965.69;;;7.92;100.00
8320;BME280;4197;42.130;24.746;2024-03-17T06:06:31;99970.66;;;7.81;100.00
8320;BME280;4197;42.130;24.746;2024-03-17T06:08:59;99976.09;;;7.64;100.00
8320;BME280;4197;42.130;24.746;2024-03-17T06:11:27;99981.75;;;7.88;100.00
8320;BME280;4197;42.130;24.746;2024-03-17T06:13:55;99987.44;;;8.04;100.00
8320;BME280;4197;42.130;24.746;2024-03-17T06:16:22;99982.19;;;8.08;100.00
8320;BME280;4197;42.130;24.746;2024-03-17T06:18:50;99984.22;;;8.11;100.00
8320;BME280;4197;42.130;24.746;2024-03-17T06:21:17;99987.66;;;8.29;100.00
8320;BME280;4197;42.130;24.746;2024-03-17T06:23:45;99988.44;;;8.29;100.00
8320;BME280;4197;42.130;24.746;2024-03-17T06:26:14;99993.59;;;8.13;100.00
8320;BME280;4197;42.130;24.746;2024-03-17T06:28:42;99995.03;;;8.11;100.00
8320;BME280;4197;42.130;24.746;2024-03-17T06:31:09;99992.25;;;8.28;100.00
8320;BME280;4197;42.130;24.746;2024-03-17T06:33:36;99992.22;;;8.37;100.00
8320;BME280;4197;42.130;24.746;2024-03-17T06:36:05;99994.88;;;8.54;100.00
8320;BME280;4197;42.130;24.746;2024-03-17T06:38:33;100008.34;;;8.63;100.00
8320;BME280;4197;42.130;24.746;2024-03-17T06:41:00;99998.25;;;8.72;100.00
8320;BME280;4197;42.130;24.746;2024-03-17T06:43:30;100009.78;;;8.60;100.00
8320;BME280;4197;42.130;24.746;2024-03-17T06:45:59;100000.41;;;8.58;100.00
8320;BME280;4197;42.130;24.746;2024-03-17T06:48:28;99997.34;;;8.89;100.00
8320;BME280;4197;42.130;24.746;2024-03-17T06:50:55;100008.50;;;8.87;100.00
8320;BME280;4197;42.130;24.746;2024-03-17T06:53:23;100007.91;;;8.82;100.00
8320;BME280;4197;42.130;24.746;2024-03-17T06:55:56;100004.19;;;8.86;100.00
8320;BME280;4197;42.130;24.746;2024-03-17T06:58:26;100000.66;;;8.94;100.00
8320;BME280;4197;42.130;24.746;2024-03-17T07:00:59;100005.72;;;9.17;100.00
8320;BME280;4197;42.130;24.746;2024-03-17T07:03:28;100004.34;;;9.32;100.00
8320;BME280;4197;42.130;24.746;2024-03-17T07:06:00;100008.56;;;9.42;100.00
8320;BME280;4197;42.130;24.746;2024-03-17T07:08:31;100010.78;;;9.60;100.00
8320;BME280;4197;42.130;24.746;2024-03-17T07:11:00;100011.84;;;9.80;100.00
8320;BME280;4197;42.130;24.746;2024-03-17T07:13:30;100010.19;;;9.88;100.00
8320;BME280;4197;42.130;24.746;2024-03-17T07:16:00;100011.34;;;9.99;100.00
8320;BME280;4197;42.130;24.746;2024-03-17T07:18:28;100021.44;;;10.23;100.00
8320;BME280;4197;42.130;24.746;2024-03-17T07:20:57;100016.47;;;10.25;100.00
8320;BME280;4197;42.130;24.746;2024-03-17T07:23:26;100009.25;;;10.30;100.00
8320;BME280;4197;42.130;24.746;2024-03-17T07:26:03;100012.75;;;10.55;100.00
8320;BME280;4197;42.130;24.746;2024-03-17T07:28:32;100017.63;;;10.49;100.00
8320;BME280;4197;42.130;24.746;2024-03-17T07:31:02;100007.56;;;10.37;100.00
8320;BME280;4197;42.130;24.746;2024-03-17T07:33:30;100008.94;;;10.43;100.00
8320;BME280;4197;42.130;24.746;2024-03-17T07:35:58;100011.06;;;10.87;100.00
8320;BME280;4197;42.130;24.746;2024-03-17T07:38:29;100011.47;;;11.01;100.00
8320;BME280;4197;42.130;24.746;2024-03-17T07:40:58;100012.44;;;11.21;100.00
8320;BME280;4197;42.130;24.746;2024-03-17T07:43:26;100009.81;;;11.25;100.00
8320;BME280;4197;42.130;24.746;2024-03-17T07:46:12;100007.75;;;11.34;100.00
8320;BME280;4197;42.130;24.746;2024-03-17T07:48:40;100011.72;;;11.36;100.00
8320;BME280;4197;42.130;24.746;2024-03-17T07:51:10;100008.69;;;11.54;100.00
8320;BME280;4197;42.130;24.746;2024-03-17T07:53:40;100010.63;;;11.53;100.00
8320;BME280;4197;42.130;24.746;2024-03-17T07:56:10;100004.59;;;11.60;100.00
8320;BME280;4197;42.130;24.746;2024-03-17T07:58:41;100005.28;;;11.57;100.00
8320;BME280;4197;42.130;24.746;2024-03-17T08:01:12;100009.44;;;11.67;100.00
8320;BME280;4197;42.130;24.746;2024-03-17T08:03:44;100000.53;;;11.54;100.00
8320;BME280;4197;42.130;24.746;2024-03-17T08:06:12;99999.31;;;11.51;100.00
8320;BME280;4197;42.130;24.746;2024-03-17T08:08:40;99996.81;;;11.58;100.00
8320;BME280;4197;42.130;24.746;2024-03-17T08:11:07;99992.69;;;11.80;100.00
8320;BME280;4197;42.130;24.746;2024-03-17T08:13:34;99990.59;;;11.74;100.00
8320;BME280;4197;42.130;24.746;2024-03-17T08:16:04;99991.66;;;11.85;100.00
8320;BME280;4197;42.130;24.746;2024-03-17T08:18:37;99992.16;;;12.03;100.00
8320;BME280;4197;42.130;24.746;2024-03-17T08:21:06;99989.59;;;11.94;100.00
8320;BME280;4197;42.130;24.746;2024-03-17T08:23:35;100000.03;;;12.08;100.00
8320;BME280;4197;42.130;24.746;2024-03-17T08:26:07;99989.94;;;11.93;100.00
8320;BME280;4197;42.130;24.746;2024-03-17T08:28:36;99991.09;;;12.08;100.00
8320;BME280;4197;42.130;24.746;2024-03-17T08:31:04;99988.75;;;12.06;100.00
8320;BME280;4197;42.130;24.746;2024-03-17T08:33:32;99986.28;;;12.01;100.00
8320;BME280;4197;42.130;24.746;2024-03-17T08:36:02;99981.38;;;12.07;100.00
8320;BME280;4197;42.130;24.746;2024-03-17T08:38:31;99983.19;;;12.34;100.00
8320;BME280;4197;42.130;24.746;2024-03-17T08:41:03;99976.31;;;12.72;100.00
8320;BME280;4197;42.130;24.746;2024-03-17T08:46:00;99971.25;;;11.91;100.00
8320;BME280;4197;42.130;24.746;2024-03-17T08:48:30;99969.69;;;12.22;100.00
8320;BME280;4197;42.130;24.746;2024-03-17T08:50:59;99973.69;;;12.60;100.00
8320;BME280;4197;42.130;24.746;2024-03-17T08:53:29;99967.13;;;12.80;100.00
8320;BME280;4197;42.130;24.746;2024-03-17T08:55:58;99968.03;;;12.68;100.00
8320;BME280;4197;42.130;24.746;2024-03-17T08:58:26;99969.53;;;12.66;100.00
8320;BME280;4197;42.130;24.746;2024-03-17T09:00:54;99962.59;;;12.01;100.00
8320;BME280;4197;42.130;24.746;2024-03-17T09:03:22;99955.81;;;12.27;100.00
8320;BME280;4197;42.130;24.746;2024-03-17T09:05:50;99962.88;;;12.12;100.00
8320;BME280;4197;42.130;24.746;2024-03-17T09:08:22;99953.28;;;12.34;100.00
8320;BME280;4197;42.130;24.746;2024-03-17T09:10:52;99950.41;;;12.62;100.00
8320;BME280;4197;42.130;24.746;2024-03-17T09:13:21;99951.09;;;12.75;100.00
8320;BME280;4197;42.130;24.746;2024-03-17T09:15:52;99951.38;;;12.70;100.00
8320;BME280;4197;42.130;24.746;2024-03-17T09:18:19;99940.34;;;13.02;100.00
8320;BME280;4197;42.130;24.746;2024-03-17T09:20:56;99949.06;;;12.53;100.00
8320;BME280;4197;42.130;24.746;2024-03-17T09:23:23;99940.22;;;12.75;100.00
8320;BME280;4197;42.130;24.746;2024-03-17T09:25:58;99943.38;;;13.16;100.00
8320;BME280;4197;42.130;24.746;2024-03-17T09:28:27;99937.88;;;13.32;100.00
8320;BME280;4197;42.130;24.746;2024-03-17T09:30:54;99938.19;;;13.69;100.00
8320;BME280;4197;42.130;24.746;2024-03-17T09:33:23;99938.97;;;13.70;100.00
8320;BME280;4197;42.130;24.746;2024-03-17T09:35:56;99935.63;;;13.80;75.62
8320;BME280;4197;42.130;24.746;2024-03-17T09:38:23;99937.63;;;13.83;73.80
8320;BME280;4197;42.130;24.746;2024-03-17T09:40:51;99921.03;;;13.92;73.36
8320;BME280;4197;42.130;24.746;2024-03-17T09:43:22;99928.97;;;14.00;72.93
8320;BME280;4197;42.130;24.746;2024-03-17T09:45:51;99930.47;;;13.98;73.13
8320;BME280;4197;42.130;24.746;2024-03-17T09:48:23;99924.03;;;14.10;72.36
8320;BME280;4197;42.130;24.746;2024-03-17T09:50:53;99919.78;;;13.86;72.50
8320;BME280;4197;42.130;24.746;2024-03-17T09:53:23;99922.78;;;13.57;73.82
8320;BME280;4197;42.130;24.746;2024-03-17T09:55:53;99917.94;;;13.47;74.34
8320;BME280;4197;42.130;24.746;2024-03-17T09:58:26;99911.81;;;13.54;75.29
8320;BME280;4197;42.130;24.746;2024-03-17T10:00:54;99908.91;;;13.66;74.40
8320;BME280;4197;42.130;24.746;2024-03-17T10:03:41;99916.91;;;13.78;73.01
8320;BME280;4197;42.130;24.746;2024-03-17T10:06:11;99917.75;;;13.82;72.49
8320;BME280;4197;42.130;24.746;2024-03-17T10:08:43;99913.50;;;13.85;72.48
8320;BME280;4197;42.130;24.746;2024-03-17T10:11:11;99911.69;;;13.93;72.74
8320;BME280;4197;42.130;24.746;2024-03-17T10:13:41;99898.50;;;13.95;71.64
8320;BME280;4197;42.130;24.746;2024-03-17T10:16:24;99898.50;;;13.95;71.74
8320;BME280;4197;42.130;24.746;2024-03-17T10:19:05;99899.09;;;13.84;71.83
8320;BME280;4197;42.130;24.746;2024-03-17T10:21:33;99892.81;;;13.80;72.31
8320;BME280;4197;42.130;24.746;2024-03-17T10:24:08;99890.06;;;13.57;72.79
8320;BME280;4197;42.130;24.746;2024-03-17T10:26:42;99894.00;;;13.60;74.33
8320;BME280;4197;42.130;24.746;2024-03-17T10:29:23;99887.28;;;14.00;71.97
8320;BME280;4197;42.130;24.746;2024-03-17T10:31:52;99888.63;;;13.87;71.62
8320;BME280;4197;42.130;24.746;2024-03-17T10:34:22;99881.31;;;13.45;73.04
8320;BME280;4197;42.130;24.746;2024-03-17T10:36:51;99888.56;;;13.60;73.20
8320;BME280;4197;42.130;24.746;2024-03-17T10:39:27;99878.53;;;13.64;72.65
8320;BME280;4197;42.130;24.746;2024-03-17T10:42:00;99878.72;;;13.75;72.52
8320;BME280;4197;42.130;24.746;2024-03-17T10:44:29;99866.81;;;13.87;72.79
8320;BME280;4197;42.130;24.746;2024-03-17T10:46:58;99874.44;;;14.00;71.54
8320;BME280;4197;42.130;24.746;2024-03-17T10:49:29;99867.75;;;13.98;71.99
8320;BME280;4197;42.130;24.746;2024-03-17T10:52:00;99871.94;;;14.18;70.70
8320;BME280;4197;42.130;24.746;2024-03-17T10:54:28;99860.84;;;14.31;69.61
8320;BME280;4197;42.130;24.746;2024-03-17T10:56:57;99866.38;;;14.38;68.97
8320;BME280;4197;42.130;24.746;2024-03-17T10:59:38;99853.28;;;14.47;68.48
8320;BME280;4197;42.130;24.746;2024-03-17T11:02:17;99852.25;;;14.55;67.69
8320;BME280;4197;42.130;24.746;2024-03-17T11:04:50;99849.41;;;14.51;67.99
8320;BME280;4197;42.130;24.746;2024-03-17T11:07:18;99846.97;;;14.73;67.68
8320;BME280;4197;42.130;24.746;2024-03-17T11:09:48;99848.22;;;14.79;67.33
8320;BME280;4197;42.130;24.746;2024-03-17T11:12:41;99838.19;;;14.90;67.63
8320;BME280;4197;42.130;24.746;2024-03-17T11:15:40;99839.22;;;15.12;66.83
8320;BME280;4197;42.130;24.746;2024-03-17T11:18:37;99829.28;;;15.34;64.74
8320;BME280;4197;42.130;24.746;2024-03-17T11:21:19;99835.81;;;14.85;65.62
8320;BME280;4197;42.130;24.746;2024-03-17T11:23:59;99828.16;;;14.98;65.50
8320;BME280;4197;42.130;24.746;2024-03-17T11:26:28;99826.34;;;14.76;66.24
8320;BME280;4197;42.130;24.746;2024-03-17T11:28:56;99823.63;;;14.76;66.33
8320;BME280;4197;42.130;24.746;2024-03-17T11:31:40;99818.00;;;14.61;67.01
8320;BME280;4197;42.130;24.746;2024-03-17T11:34:28;99811.16;;;14.78;66.39
8320;BME280;4197;42.130;24.746;2024-03-17T11:36:55;99808.59;;;14.92;66.53
8320;BME280;4197;42.130;24.746;2024-03-17T11:39:48;99808.84;;;15.17;66.01
8320;BME280;4197;42.130;24.746;2024-03-17T11:42:26;99812.03;;;15.27;64.27
8320;BME280;4197;42.130;24.746;2024-03-17T11:44:59;99807.19;;;15.09;63.46
8320;BME280;4197;42.130;24.746;2024-03-17T11:47:38;99801.69;;;15.02;64.65
8320;BME280;4197;42.130;24.746;2024-03-17T11:50:08;99802.91;;;15.08;64.55
8320;BME280;4197;42.130;24.746;2024-03-17T11:52:38;99802.19;;;15.18;64.57
8320;BME280;4197;42.130;24.746;2024-03-17T11:55:17;99795.41;;;15.43;60.84
8320;BME280;4197;42.130;24.746;2024-03-17T11:57:44;99785.31;;;15.50;59.75
8320;BME280;4197;42.130;24.746;2024-03-17T12:00:22;99787.72;;;15.59;56.82
8320;BME280;4197;42.130;24.746;2024-03-17T12:02:51;99781.47;;;15.58;58.21
8320;BME280;4197;42.130;24.746;2024-03-17T12:05:19;99782.25;;;15.62;58.81
8320;BME280;4197;42.130;24.746;2024-03-17T12:07:46;99773.31;;;15.66;58.62
8320;BME280;4197;42.130;24.746;2024-03-17T12:10:14;99776.00;;;15.58;57.27
8320;BME280;4197;42.130;24.746;2024-03-17T12:12:40;99774.06;;;15.59;57.89
8320;BME280;4197;42.130;24.746;2024-03-17T12:15:17;99769.06;;;15.68;57.73
8320;BME280;4197;42.130;24.746;2024-03-17T12:17:45;99769.53;;;15.81;58.16
8320;BME280;4197;42.130;24.746;2024-03-17T12:20:19;99768.84;;;15.95;56.31
8320;BME280;4197;42.130;24.746;2024-03-17T12:22:46;99764.22;;;16.06;55.56
8320;BME280;4197;42.130;24.746;2024-03-17T12:25:17;99769.31;;;16.08;55.75
8320;BME280;4197;42.130;24.746;2024-03-17T12:27:44;99770.16;;;16.19;51.88
8320;BME280;4197;42.130;24.746;2024-03-17T12:30:13;99759.63;;;16.28;50.34
8320;BME280;4197;42.130;24.746;2024-03-17T12:32:40;99762.66;;;16.05;49.15
8320;BME280;4197;42.130;24.746;2024-03-17T12:35:13;99765.81;;;16.11;49.09
8320;BME280;4197;42.130;24.746;2024-03-17T12:37:45;99757.25;;;16.19;50.37
8320;BME280;4197;42.130;24.746;2024-03-17T12:40:21;99749.09;;;16.34;50.50
8320;BME280;4197;42.130;24.746;2024-03-17T12:42:50;99751.88;;;16.44;49.16
8320;BME280;4197;42.130;24.746;2024-03-17T12:45:20;99740.94;;;16.48;48.98
8320;BME280;4197;42.130;24.746;2024-03-17T12:47:49;99740.88;;;16.34;48.73
8320;BME280;4197;42.130;24.746;2024-03-17T12:50:17;99737.00;;;16.42;48.58
8320;BME280;4197;42.130;24.746;2024-03-17T12:52:53;99737.03;;;16.53;46.87
8320;BME280;4197;42.130;24.746;2024-03-17T12:55:21;99729.59;;;16.57;47.03
8320;BME280;4197;42.130;24.746;2024-03-17T12:58:07;99728.88;;;16.74;45.72
8320;BME280;4197;42.130;24.746;2024-03-17T13:00:59;99718.75;;;16.92;43.78
8320;BME280;4197;42.130;24.746;2024-03-17T13:03:31;99712.88;;;16.98;42.75
8320;BME280;4197;42.130;24.746;2024-03-17T13:06:00;99708.19;;;16.94;41.86
8320;BME280;4197;42.130;24.746;2024-03-17T13:08:30;99712.91;;;17.08;41.34
8320;BME280;4197;42.130;24.746;2024-03-17T13:10:58;99708.22;;;17.16;42.16
8320;BME280;4197;42.130;24.746;2024-03-17T13:13:26;99708.59;;;17.11;41.76
8320;BME280;4197;42.130;24.746;2024-03-17T13:15:54;99695.69;;;16.93;41.86
8320;BME280;4197;42.130;24.746;2024-03-17T13:18:21;99696.06;;;16.78;42.30
8320;BME280;4197;42.130;24.746;2024-03-17T13:20:51;99703.09;;;16.89;42.53
8320;BME280;4197;42.130;24.746;2024-03-17T13:23:20;99698.81;;;16.88;42.32